createdAt,value
2023-01-08T00:01:07.269Z,98435.56
2023-01-08T00:03:36.400Z,98427.22
2023-01-08T00:06:06.096Z,98421.38
2023-01-08T00:08:33.658Z,98429.06
2023-01-08T00:11:00.882Z,98421.41
2023-01-08T00:13:28.356Z,98425.41
2023-01-08T00:15:55.308Z,98415.41
2023-01-08T00:18:22.428Z,98406.88
2023-01-08T00:20:49.613Z,98418.44
2023-01-08T00:23:18.525Z,98413.72
2023-01-08T00:25:46.035Z,98385.97
2023-01-08T00:28:15.226Z,98418.78
2023-01-08T00:30:42.681Z,98416.75
2023-01-08T00:33:10.883Z,98404.06
2023-01-08T00:35:41.357Z,98405.75
2023-01-08T00:38:08.341Z,98390.69
2023-01-08T00:40:36.091Z,98388.84
2023-01-08T00:43:03.958Z,98395.19
2023-01-08T00:45:31.162Z,98388.50
2023-01-08T00:47:58.523Z,98387.81
2023-01-08T00:50:26.143Z,98369.75
2023-01-08T00:52:53.185Z,98387.47
2023-01-08T00:55:20.421Z,98389.78
2023-01-08T00:57:47.323Z,98399.31
2023-01-08T01:00:16.073Z,98389.41
2023-01-08T01:02:43.961Z,98401.78
2023-01-08T01:05:15.543Z,98405.25
2023-01-08T01:07:43.219Z,98393.00
2023-01-08T01:10:11.825Z,98410.56
2023-01-08T01:12:39.551Z,98400.69
2023-01-08T01:15:12.808Z,98403.97
2023-01-08T01:17:41.565Z,98403.94
2023-01-08T01:20:11.325Z,98390.69
2023-01-08T01:22:39.176Z,98388.50
2023-01-08T01:25:07.223Z,98384.63
2023-01-08T01:27:34.159Z,98375.59
2023-01-08T01:30:01.208Z,98376.22
2023-01-08T01:32:28.157Z,98378.53
2023-01-08T01:34:55.082Z,98371.16
2023-01-08T01:37:22.009Z,98376.13
2023-01-08T01:39:48.980Z,98368.59
2023-01-08T01:42:37.183Z,98364.72
2023-01-08T01:45:17.798Z,98353.81
2023-01-08T01:47:50.034Z,98355.31
2023-01-08T01:50:27.806Z,98357.41
2023-01-08T01:53:04.814Z,98358.91
2023-01-08T01:55:32.960Z,98353.19
2023-01-08T01:58:13.715Z,98365.47
2023-01-08T02:00:41.812Z,98353.75
2023-01-08T02:03:11.488Z,98333.66
2023-01-08T02:05:55.386Z,98345.97
2023-01-08T02:09:13.284Z,98336.63
2023-01-08T02:12:27.604Z,98339.75
2023-01-08T02:15:41.882Z,98337.53
2023-01-08T02:18:46.112Z,98341.50
2023-01-08T02:22:07.481Z,98336.50
2023-01-08T02:25:19.658Z,98326.16
2023-01-08T02:28:06.275Z,98330.63
2023-01-08T02:30:33.273Z,98328.44
2023-01-08T02:33:00.197Z,98332.47
2023-01-08T02:35:41.337Z,98329.28
2023-01-08T02:38:13.532Z,98329.28
2023-01-08T02:40:54.597Z,98327.72
2023-01-08T02:43:32.553Z,98333.22
2023-01-08T02:46:02.651Z,98314.66
2023-01-08T02:48:40.496Z,98332.69
2023-01-08T02:51:31.365Z,98334.81
2023-01-08T02:54:02.575Z,98335.28
2023-01-08T02:56:36.948Z,98332.75
2023-01-08T02:59:07.654Z,98314.19
2023-01-08T03:01:35.716Z,98329.72
2023-01-08T03:04:08.450Z,98332.00
2023-01-08T03:06:35.606Z,98324.75
2023-01-08T03:09:02.685Z,98319.25
2023-01-08T03:11:41.769Z,98321.22
2023-01-08T03:14:30.708Z,98315.31
2023-01-08T03:17:05.742Z,98316.97
2023-01-08T03:19:42.359Z,98321.25
2023-01-08T03:22:16.136Z,98316.59
2023-01-08T03:24:47.046Z,98308.94
2023-01-08T03:27:19.288Z,98313.09
2023-01-08T03:29:49.639Z,98299.13
2023-01-08T03:32:19.166Z,98304.97
2023-01-08T03:34:48.922Z,98307.25
2023-01-08T03:37:20.712Z,98311.47
2023-01-08T03:40:04.722Z,98313.56
2023-01-08T03:42:32.840Z,98308.59
2023-01-08T03:45:03.474Z,98308.19
2023-01-08T03:47:32.567Z,98305.69
2023-01-08T03:50:03.510Z,98303.72
2023-01-08T03:52:33.396Z,98296.47
2023-01-08T03:55:00.398Z,98312.84
2023-01-08T03:57:27.504Z,98302.88
2023-01-08T03:59:54.423Z,98297.56
2023-01-08T04:02:21.540Z,98297.19
2023-01-08T04:04:48.865Z,98303.91
2023-01-08T04:07:15.911Z,98302.38
2023-01-08T04:09:42.869Z,98288.00
2023-01-08T04:12:09.734Z,98288.44
2023-01-08T04:14:36.606Z,98288.44
2023-01-08T04:17:03.575Z,98292.13
2023-01-08T04:19:30.482Z,98286.38
2023-01-08T04:21:57.473Z,98289.59
2023-01-08T04:24:24.741Z,98296.84
2023-01-08T04:26:51.695Z,98290.44
2023-01-08T04:29:18.626Z,98300.75
2023-01-08T04:31:45.554Z,98296.84
2023-01-08T04:34:12.528Z,98300.88
2023-01-08T04:36:39.457Z,98296.59
2023-01-08T04:39:07.761Z,98296.28
2023-01-08T04:41:34.716Z,98290.44
2023-01-08T04:44:04.969Z,98289.16
2023-01-08T04:46:32.014Z,98277.56
2023-01-08T04:48:58.957Z,98285.94
2023-01-08T04:51:26.678Z,98278.69
2023-01-08T04:53:53.643Z,98277.56
2023-01-08T04:56:20.580Z,98276.03
2023-01-08T04:58:47.623Z,98272.94
2023-01-08T05:01:26.210Z,98255.91
2023-01-08T05:03:55.345Z,98255.50
2023-01-08T05:06:22.422Z,98239.16
2023-01-08T05:08:49.491Z,98247.66
2023-01-08T05:11:16.666Z,98252.84
2023-01-08T05:13:43.934Z,98253.94
2023-01-08T05:16:10.994Z,98271.69
2023-01-08T05:18:37.933Z,98265.84
2023-01-08T05:21:05.715Z,98266.09
2023-01-08T05:23:33.853Z,98271.41
2023-01-08T05:26:02.481Z,98266.81
2023-01-08T05:28:30.709Z,98259.81
2023-01-08T05:30:58.455Z,98267.78
2023-01-08T05:33:26.407Z,98264.72
2023-01-08T05:35:53.437Z,98247.13
2023-01-08T05:38:20.374Z,98256.16
2023-01-08T05:40:47.412Z,98257.72
2023-01-08T05:43:14.419Z,98251.97
2023-01-08T05:45:41.331Z,98260.78
2023-01-08T05:48:08.561Z,98234.53
2023-01-08T05:50:36.133Z,98256.00
2023-01-08T05:53:06.805Z,98251.13
2023-01-08T05:55:34.149Z,98245.25
2023-01-08T05:58:04.902Z,98248.19
2023-01-08T06:00:33.525Z,98241.06
2023-01-08T06:03:00.606Z,98242.00
2023-01-08T06:05:27.826Z,98236.28
2023-01-08T06:07:54.780Z,98236.84
2023-01-08T06:10:22.012Z,98236.44
2023-01-08T06:12:48.891Z,98232.38
2023-01-08T06:15:16.104Z,98211.31
2023-01-08T06:17:43.269Z,98243.41
2023-01-08T06:20:10.934Z,98240.78
2023-01-08T06:22:38.204Z,98229.72
2023-01-08T06:25:05.588Z,98247.19
2023-01-08T06:27:32.490Z,98248.75
2023-01-08T06:29:59.405Z,98234.53
2023-01-08T06:32:26.323Z,98235.75
2023-01-08T06:34:53.264Z,98238.28
2023-01-08T06:37:20.206Z,98253.66
2023-01-08T06:39:47.121Z,98240.06
2023-01-08T06:42:14.019Z,98239.09
2023-01-08T06:44:40.985Z,98226.38
2023-01-08T06:47:07.959Z,98213.72
2023-01-08T06:49:34.855Z,98223.16
2023-01-08T06:52:01.796Z,98225.81
2023-01-08T06:54:28.798Z,98227.53
2023-01-08T06:56:55.743Z,98232.41
2023-01-08T06:59:22.696Z,98225.28
2023-01-08T07:01:50.145Z,98227.53
2023-01-08T07:04:18.270Z,98227.94
2023-01-08T07:06:45.469Z,98228.81
2023-01-08T07:09:13.703Z,98235.94
2023-01-08T07:11:43.941Z,98227.28
2023-01-08T07:14:11.141Z,98218.59
2023-01-08T07:16:38.191Z,98215.53
2023-01-08T07:19:05.381Z,98218.03
2023-01-08T07:21:32.345Z,98226.56
2023-01-08T07:23:59.830Z,98230.91
2023-01-08T07:26:26.887Z,98232.28
2023-01-08T07:28:54.057Z,98224.34
2023-01-08T07:31:21.132Z,98227.00
2023-01-08T07:33:48.165Z,98216.50
2023-01-08T07:36:15.955Z,98204.88
2023-01-08T07:38:43.537Z,98204.16
2023-01-08T07:41:10.724Z,98205.13
2023-01-08T07:43:37.625Z,98201.38
2023-01-08T07:46:04.953Z,98199.25
2023-01-08T07:48:32.606Z,98205.13
2023-01-08T07:51:03.955Z,98198.94
2023-01-08T07:53:30.961Z,98192.19
2023-01-08T07:56:05.490Z,98187.91
2023-01-08T07:58:32.484Z,98176.50
2023-01-08T08:00:59.640Z,98162.06
2023-01-08T08:03:27.243Z,98169.47
2023-01-08T08:05:54.406Z,98170.25
2023-01-08T08:08:21.387Z,98174.59
2023-01-08T08:10:48.390Z,98155.97
2023-01-08T08:13:15.328Z,98156.94
2023-01-08T08:15:42.402Z,98153.25
2023-01-08T08:18:10.996Z,98149.34
2023-01-08T08:20:38.492Z,98147.47
2023-01-08T08:23:10.980Z,98134.41
2023-01-08T08:25:37.931Z,98147.66
2023-01-08T08:28:05.710Z,98144.38
2023-01-08T08:30:35.279Z,98155.13
2023-01-08T08:33:04.227Z,98148.19
2023-01-08T08:35:32.102Z,98135.88
2023-01-08T08:37:59.879Z,98140.75
2023-01-08T08:40:27.530Z,98134.94
2023-01-08T08:43:02.912Z,98133.44
2023-01-08T08:45:30.398Z,98132.44
2023-01-08T08:47:57.529Z,98131.59
2023-01-08T08:50:24.936Z,98140.44
2023-01-08T08:52:52.007Z,98147.47
2023-01-08T08:55:19.066Z,98141.63
2023-01-08T08:57:47.198Z,98139.97
2023-01-08T09:00:14.775Z,98149.41
2023-01-08T09:02:41.947Z,98146.72
2023-01-08T09:05:09.051Z,98138.47
2023-01-08T09:07:37.156Z,98131.09
2023-01-08T09:10:04.706Z,98137.75
2023-01-08T09:12:31.647Z,98140.97
2023-01-08T09:14:58.851Z,98130.94
2023-01-08T09:17:26.176Z,98121.47
2023-01-08T09:19:53.496Z,98131.44
2023-01-08T09:22:21.210Z,98119.28
2023-01-08T09:24:48.169Z,98097.72
2023-01-08T09:27:15.598Z,98105.13
2023-01-08T09:29:42.588Z,98099.97
2023-01-08T09:32:09.970Z,98094.81
2023-01-08T09:34:37.120Z,98096.66
2023-01-08T09:37:05.352Z,98084.34
2023-01-08T09:39:33.222Z,98085.19
2023-01-08T09:42:04.672Z,98077.50
2023-01-08T09:44:39.238Z,98066.50
2023-01-08T09:47:19.517Z,98068.84
2023-01-08T09:49:48.184Z,98051.81
2023-01-08T09:52:16.304Z,98056.63
2023-01-08T09:54:43.295Z,98050.97
2023-01-08T09:57:20.674Z,98031.53
2023-01-08T09:59:49.797Z,98010.66
2023-01-08T10:02:24.581Z,98013.59
2023-01-08T10:05:00.447Z,98026.69
2023-01-08T10:07:30.662Z,98023.56
2023-01-08T10:09:57.695Z,98022.31
2023-01-08T10:12:32.726Z,97998.28
2023-01-08T10:15:03.638Z,98011.63
2023-01-08T10:17:41.195Z,98008.06
2023-01-08T10:20:22.705Z,97990.34
2023-01-08T10:22:50.484Z,97994.63
2023-01-08T10:25:22.087Z,97991.31
2023-01-08T10:27:55.435Z,97983.63
2023-01-08T10:30:29.608Z,97983.34
2023-01-08T10:32:59.010Z,97976.50
2023-01-08T10:35:34.693Z,97972.53
2023-01-08T10:38:02.462Z,97971.56
2023-01-08T10:40:45.867Z,97971.28
2023-01-08T10:43:17.665Z,97962.47
2023-01-08T10:45:57.273Z,97963.38
2023-01-08T10:48:30.379Z,97959.28
2023-01-08T10:51:13.620Z,97959.53
2023-01-08T10:53:41.731Z,97972.41
2023-01-08T10:56:20.764Z,97967.47
2023-01-08T10:58:48.553Z,97963.78
2023-01-08T11:01:24.090Z,97973.94
2023-01-08T11:03:54.269Z,97961.16
2023-01-08T11:06:33.108Z,97955.41
2023-01-08T11:09:03.201Z,97962.44
2023-01-08T11:11:35.871Z,97962.81
2023-01-08T11:14:06.733Z,97962.63
2023-01-08T11:16:43.643Z,97964.91
2023-01-08T11:19:19.855Z,97933.06
2023-01-08T11:22:01.772Z,97954.69
2023-01-08T11:24:32.616Z,97945.22
2023-01-08T11:27:10.936Z,97941.06
2023-01-08T11:29:45.909Z,97934.97
2023-01-08T11:32:15.876Z,97926.75
2023-01-08T11:34:56.125Z,97932.81
2023-01-08T11:37:39.554Z,97927.75
2023-01-08T11:40:18.644Z,97924.03
2023-01-08T11:43:01.741Z,97919.28
2023-01-08T11:45:40.774Z,97921.56
2023-01-08T11:48:45.379Z,97913.75
2023-01-08T11:51:43.284Z,97900.91
2023-01-08T11:54:36.829Z,97903.69
2023-01-08T11:57:54.895Z,97907.69
2023-01-08T12:01:11.293Z,97902.97
2023-01-08T12:03:47.423Z,97903.22
2023-01-08T12:06:17.125Z,97898.22
2023-01-08T12:09:09.525Z,97895.69
2023-01-08T12:11:43.489Z,97896.47
2023-01-08T12:14:38.247Z,97898.63
2023-01-08T12:17:27.645Z,97898.78
2023-01-08T12:20:12.064Z,97882.31
2023-01-08T12:22:50.598Z,97883.47
2023-01-08T12:25:35.957Z,97879.41
2023-01-08T12:28:22.850Z,97874.69
2023-01-08T12:31:07.025Z,97879.44
2023-01-08T12:33:54.478Z,97879.69
2023-01-08T12:36:28.994Z,97881.97
2023-01-08T12:39:03.148Z,97880.53
2023-01-08T12:41:35.158Z,97853.97
2023-01-08T12:44:10.462Z,97886.72
2023-01-08T12:46:39.691Z,97886.72
2023-01-08T12:49:08.481Z,97882.59
2023-01-08T12:51:40.305Z,97875.78
2023-01-08T12:54:13.425Z,97878.47
2023-01-08T12:56:49.101Z,97871.88
2023-01-08T12:59:36.226Z,97874.34
2023-01-08T13:02:11.058Z,97879.72
2023-01-08T13:04:47.002Z,97884.16
2023-01-08T13:07:21.614Z,97869.03
2023-01-08T13:10:03.538Z,97879.31
2023-01-08T13:12:41.440Z,97885.13
2023-01-08T13:15:09.106Z,97879.97
2023-01-08T13:17:38.249Z,97873.59
2023-01-08T13:20:07.511Z,97881.88
2023-01-08T13:22:37.199Z,97879.78
2023-01-08T13:25:17.256Z,97881.47
2023-01-08T13:27:45.727Z,97866.53
2023-01-08T13:30:31.840Z,97875.63
2023-01-08T13:32:59.255Z,97867.38
2023-01-08T13:35:29.888Z,97874.22
2023-01-08T13:38:11.902Z,97876.50
2023-01-08T13:40:44.748Z,97882.31
2023-01-08T13:43:36.883Z,97892.06
2023-01-08T13:46:03.804Z,97891.06
2023-01-08T13:48:36.492Z,97884.41
2023-01-08T13:51:04.321Z,97892.47
2023-01-08T13:53:32.546Z,97886.88
2023-01-08T13:56:02.752Z,97903.16
2023-01-08T13:58:36.292Z,97908.69
2023-01-08T14:01:05.205Z,97901.81
2023-01-08T14:03:44.815Z,97896.59
2023-01-08T14:06:26.191Z,97892.38
2023-01-08T14:09:00.503Z,97901.78
2023-01-08T14:11:46.036Z,97893.94
2023-01-08T14:14:18.207Z,97881.69
2023-01-08T14:16:47.621Z,97896.94
2023-01-08T14:19:23.104Z,97892.78
2023-01-08T14:21:52.827Z,97895.19
2023-01-08T14:24:22.645Z,97881.31
2023-01-08T14:27:00.481Z,97892.72
2023-01-08T14:29:31.004Z,97894.28
2023-01-08T14:32:01.443Z,97895.22
2023-01-08T14:34:53.800Z,97889.97
2023-01-08T14:37:20.963Z,97889.41
2023-01-08T14:39:55.055Z,97884.16
2023-01-08T14:42:44.559Z,97887.31
2023-01-08T14:45:11.557Z,97877.22
2023-01-08T14:47:45.935Z,97882.50
2023-01-08T14:50:27.790Z,97877.94
2023-01-08T14:53:17.904Z,97875.53
2023-01-08T14:55:49.225Z,97874.19
2023-01-08T14:58:21.015Z,97878.00
2023-01-08T15:00:54.217Z,97875.88
2023-01-08T15:03:32.354Z,97883.22
2023-01-08T15:05:59.926Z,97880.75
2023-01-08T15:08:38.654Z,97873.97
2023-01-08T15:11:15.738Z,97862.09
2023-01-08T15:13:42.679Z,97843.81
2023-01-08T15:16:16.641Z,97846.56
2023-01-08T15:18:50.285Z,97834.25
2023-01-08T15:21:20.034Z,97836.13
2023-01-08T15:23:50.398Z,97845.78
2023-01-08T15:26:18.110Z,97850.03
2023-01-08T15:29:06.912Z,97842.84
2023-01-08T15:31:39.616Z,97827.34
2023-01-08T15:34:08.961Z,97810.41
2023-01-08T15:36:35.949Z,97820.44
2023-01-08T15:39:03.713Z,97818.78
2023-01-08T15:41:59.157Z,97818.78
2023-01-08T15:44:26.249Z,97834.81
2023-01-08T15:46:53.518Z,97823.50
2023-01-08T15:49:20.622Z,97827.31
2023-01-08T15:51:49.856Z,97820.31
2023-01-08T15:54:17.227Z,97807.22
2023-01-08T15:56:44.272Z,97823.91
2023-01-08T15:59:12.103Z,97831.41
2023-01-08T16:01:39.315Z,97837.78
2023-01-08T16:04:06.684Z,97828.09
2023-01-08T16:06:33.895Z,97825.94
2023-01-08T16:09:01.657Z,97823.44
2023-01-08T16:11:28.650Z,97832.94
2023-01-08T16:13:55.750Z,97832.31
2023-01-08T16:16:22.729Z,97830.28
2023-01-08T16:18:49.706Z,97823.63
2023-01-08T16:21:18.269Z,97820.47
2023-01-08T16:23:45.138Z,97820.63
2023-01-08T16:26:17.383Z,97819.63
2023-01-08T16:28:44.742Z,97821.81
2023-01-08T16:31:11.757Z,97801.84
2023-01-08T16:33:39.019Z,97819.34
2023-01-08T16:36:08.450Z,97812.19
2023-01-08T16:38:36.256Z,97805.69
2023-01-08T16:41:04.437Z,97808.50
2023-01-08T16:43:39.897Z,97812.03
2023-01-08T16:46:18.259Z,97814.34
2023-01-08T16:48:46.997Z,97799.31
2023-01-08T16:51:14.364Z,97806.69
2023-01-08T16:53:41.806Z,97801.34
2023-01-08T16:56:09.875Z,97803.66
2023-01-08T16:58:37.485Z,97803.50
2023-01-08T17:01:10.787Z,97791.34
2023-01-08T17:03:39.014Z,97798.19
2023-01-08T17:06:10.770Z,97807.00
2023-01-08T17:08:40.431Z,97769.34
2023-01-08T17:11:12.670Z,97809.69
2023-01-08T17:13:40.098Z,97779.34
2023-01-08T17:16:15.722Z,97819.34
2023-01-08T17:18:42.918Z,97814.00
2023-01-08T17:21:11.880Z,97806.03
2023-01-08T17:23:39.786Z,97806.03
2023-01-08T17:26:14.054Z,97807.31
2023-01-08T17:28:41.146Z,97804.66
2023-01-08T17:31:13.445Z,97807.31
2023-01-08T17:33:40.498Z,97808.00
2023-01-08T17:36:16.931Z,97780.69
2023-01-08T17:38:44.016Z,97800.34
2023-01-08T17:41:11.205Z,97806.16
2023-01-08T17:43:39.426Z,97796.34
2023-01-08T17:46:07.594Z,97802.84
2023-01-08T17:48:34.898Z,97799.84
2023-01-08T17:51:07.949Z,97798.31
2023-01-08T17:53:36.238Z,97787.16
2023-01-08T17:56:05.897Z,97806.16
2023-01-08T17:58:33.199Z,97804.81
2023-01-08T18:01:00.226Z,97800.00
2023-01-08T18:03:27.167Z,97809.66
2023-01-08T18:05:54.063Z,97799.94
2023-01-08T18:08:20.982Z,97800.13
2023-01-08T18:10:48.853Z,97800.41
2023-01-08T18:13:15.733Z,97798.56
2023-01-08T18:15:42.649Z,97791.88
2023-01-08T18:18:09.548Z,97806.19
2023-01-08T18:20:39.421Z,97805.69
2023-01-08T18:23:06.433Z,97789.50
2023-01-08T18:25:33.339Z,97782.53
2023-01-08T18:28:00.648Z,97793.81
2023-01-08T18:30:29.247Z,97784.69
2023-01-08T18:32:58.907Z,97783.28
2023-01-08T18:35:25.810Z,97799.63
2023-01-08T18:37:52.698Z,97789.59
2023-01-08T18:40:19.767Z,97782.25
2023-01-08T18:42:48.171Z,97781.41
2023-01-08T18:45:15.419Z,97779.41
2023-01-08T18:47:42.878Z,97775.38
2023-01-08T18:50:10.855Z,97757.84
2023-01-08T18:52:39.794Z,97770.03
2023-01-08T18:55:06.996Z,97752.50
2023-01-08T18:57:33.861Z,97757.69
2023-01-08T19:00:00.844Z,97748.00
2023-01-08T19:02:28.116Z,97751.66
2023-01-08T19:04:55.080Z,97736.38
2023-01-08T19:07:22.050Z,97735.69
2023-01-08T19:09:49.049Z,97730.25
2023-01-08T19:12:15.963Z,97734.38
2023-01-08T19:14:42.996Z,97716.38
2023-01-08T19:17:09.937Z,97726.00
2023-01-08T19:19:36.955Z,97717.78
2023-01-08T19:22:03.873Z,97713.75
2023-01-08T19:24:32.661Z,97716.94
2023-01-08T19:26:59.544Z,97709.13
2023-01-08T19:29:26.502Z,97709.25
2023-01-08T19:31:53.410Z,97717.56
2023-01-08T19:34:20.406Z,97700.38
2023-01-08T19:36:47.566Z,97700.84
2023-01-08T19:39:14.514Z,97701.78
2023-01-08T19:41:59.901Z,97700.41
2023-01-08T19:44:26.822Z,97692.09
2023-01-08T19:46:53.714Z,97694.78
2023-01-08T19:49:20.643Z,97694.00
2023-01-08T19:51:47.573Z,97685.19
2023-01-08T19:54:14.965Z,97684.81
2023-01-08T19:56:41.911Z,97642.91
2023-01-08T19:59:11.276Z,97659.81
2023-01-08T20:01:40.512Z,97674.75
2023-01-08T20:04:08.283Z,97680.94
2023-01-08T20:06:35.255Z,97685.69
2023-01-08T20:09:02.838Z,97671.34
2023-01-08T20:11:30.219Z,97678.69
2023-01-08T20:14:01.057Z,97673.34
2023-01-08T20:16:30.928Z,97664.13
2023-01-08T20:19:02.547Z,97666.00
2023-01-08T20:21:30.293Z,97668.53
2023-01-08T20:24:00.579Z,97665.66
2023-01-08T20:26:30.104Z,97669.53
2023-01-08T20:28:58.421Z,97658.97
2023-01-08T20:31:29.838Z,97653.16
2023-01-08T20:33:58.404Z,97649.63
2023-01-08T20:36:28.474Z,97647.75
2023-01-08T20:38:57.897Z,97636.22
2023-01-08T20:41:26.710Z,97633.66
2023-01-08T20:43:57.628Z,97633.97
2023-01-08T20:46:30.511Z,97631.91
2023-01-08T20:49:03.906Z,97630.19
2023-01-08T20:51:36.473Z,97607.88
2023-01-08T20:54:05.686Z,97613.28
2023-01-08T20:56:32.831Z,97608.25
2023-01-08T20:59:01.260Z,97603.38
2023-01-08T21:01:31.639Z,97601.03
2023-01-08T21:03:59.095Z,97602.63
2023-01-08T21:06:28.771Z,97603.94
2023-01-08T21:09:00.901Z,97610.78
2023-01-08T21:11:30.501Z,97587.19
2023-01-08T21:13:57.406Z,97595.03
2023-01-08T21:16:28.623Z,97590.88
2023-01-08T21:18:56.324Z,97583.34
2023-01-08T21:21:29.031Z,97585.28
2023-01-08T21:23:57.499Z,97570.44
2023-01-08T21:26:24.669Z,97579.22
2023-01-08T21:28:52.328Z,97564.47
2023-01-08T21:31:22.567Z,97580.25
2023-01-08T21:33:49.942Z,97574.97
2023-01-08T21:36:22.846Z,97562.56
2023-01-08T21:38:50.561Z,97563.00
2023-01-08T21:41:46.540Z,97563.41
2023-01-08T21:44:37.905Z,97551.13
2023-01-08T21:47:07.693Z,97557.56
2023-01-08T21:49:36.262Z,97562.63
2023-01-08T21:52:22.709Z,97553.63
2023-01-08T21:54:49.834Z,97554.78
2023-01-08T21:57:17.042Z,97549.91
2023-01-08T21:59:45.018Z,97535.34
2023-01-08T22:02:16.231Z,97540.31
2023-01-08T22:04:44.537Z,97533.22
2023-01-08T22:07:12.462Z,97547.41
2023-01-08T22:09:40.601Z,97531.53
2023-01-08T22:12:08.144Z,97537.72
2023-01-08T22:14:35.625Z,97528.53
2023-01-08T22:17:04.344Z,97531.50
2023-01-08T22:19:31.581Z,97538.28
2023-01-08T22:21:58.500Z,97533.63
2023-01-08T22:24:25.387Z,97531.56
2023-01-08T22:26:52.313Z,97524.56
2023-01-08T22:29:19.234Z,97518.38
2023-01-08T22:31:46.309Z,97522.72
2023-01-08T22:34:17.393Z,97517.38
2023-01-08T22:36:52.129Z,97499.47
2023-01-08T22:39:19.618Z,97515.88
2023-01-08T22:41:46.492Z,97527.66
2023-01-08T22:44:13.843Z,97485.31
2023-01-08T22:46:41.441Z,97504.13
2023-01-08T22:49:11.375Z,97523.66
2023-01-08T22:51:38.860Z,97518.63
2023-01-08T22:54:06.537Z,97509.22
2023-01-08T22:56:33.468Z,97517.06
2023-01-08T22:59:00.419Z,97506.84
2023-01-08T23:01:28.000Z,97499.00
2023-01-08T23:03:58.267Z,97499.94
2023-01-08T23:06:27.894Z,97504.09
2023-01-08T23:08:56.001Z,97479.22
2023-01-08T23:11:23.747Z,97503.38
2023-01-08T23:13:51.428Z,97496.72
2023-01-08T23:16:24.185Z,97492.69
2023-01-08T23:18:51.968Z,97494.97
2023-01-08T23:21:21.231Z,97483.09
2023-01-08T23:23:48.808Z,97478.38
2023-01-08T23:26:27.243Z,97479.88
2023-01-08T23:28:55.274Z,97476.16
2023-01-08T23:31:24.775Z,97470.66
2023-01-08T23:33:52.697Z,97469.25
2023-01-08T23:36:21.417Z,97473.59
2023-01-08T23:38:50.734Z,97460.44
2023-01-08T23:41:18.822Z,97444.03
2023-01-08T23:43:46.268Z,97457.94
2023-01-08T23:46:13.931Z,97442.28
2023-01-08T23:48:41.512Z,97434.44
2023-01-08T23:51:08.741Z,97442.56
2023-01-08T23:53:35.687Z,97435.00
2023-01-08T23:56:02.639Z,97436.56
2023-01-08T23:58:29.989Z,97428.44
